Millwood, Missouri
Current Conditions -  °F | °C
As of 3:54 PM on Monday 24 Nov 2014 (Local Time) from KSET Reporting Station
Overcast Overcast  
Wind Chill:   Ceiling: 3900
Heat Index:   Visibility: 10mi
Dew Point: -2°   Wind: 13mph
Humidity: 65%   Direction: 250°WSW
Pressure: 29.82"   Gusts: NA
Location:  39.1404°N, 91.0631°W
Report Text: KSET 242154Z AUTO 25011KT 10SM OVC039 04/M02 A2982 RMK AO2 SLP098 T00391022
Loading
Personal Weather Stations






























Interactive Weather Map New forecast layout! Learn more

10-Day Weather Forecast

Advertisements
Track Severe Weather on mobile